createdAt,value
2016-08-11T00:00:35.243Z,1037
2016-08-11T00:01:35.238Z,1037
2016-08-11T00:02:35.227Z,1037
2016-08-11T00:03:35.220Z,1037
2016-08-11T00:04:35.215Z,1036.99
2016-08-11T00:05:35.207Z,1036.98
2016-08-11T00:06:35.198Z,1037
2016-08-11T00:07:35.193Z,1037.03
2016-08-11T00:08:35.187Z,1036.99
2016-08-11T00:09:35.177Z,1036.99
2016-08-11T00:10:35.168Z,1036.98
2016-08-11T00:11:35.163Z,1036.99
2016-08-11T00:12:35.154Z,1037.03
2016-08-11T00:13:35.145Z,1036.99
2016-08-11T00:14:35.137Z,1037.01
2016-08-11T00:15:35.132Z,1037
2016-08-11T00:16:35.122Z,1036.95
2016-08-11T00:17:35.117Z,1036.95
2016-08-11T00:18:35.109Z,1036.97
2016-08-11T00:19:35.102Z,1036.97
2016-08-11T00:20:35.092Z,1037
2016-08-11T00:21:35.086Z,1036.95
2016-08-11T00:22:35.077Z,1036.98
2016-08-11T00:23:35.071Z,1036.96
2016-08-11T00:24:35.063Z,1036.96
2016-08-11T00:25:35.055Z,1036.97
2016-08-11T00:26:35.053Z,1036.97
2016-08-11T00:27:35.038Z,1036.99
2016-08-11T00:28:35.033Z,1037.04
2016-08-11T00:29:35.023Z,1037.06
2016-08-11T00:30:36.069Z,1037.01
2016-08-11T00:31:35.008Z,1037.04
2016-08-11T00:32:35.003Z,1037.06
2016-08-11T00:33:34.997Z,1037.09
2016-08-11T00:34:34.989Z,1037.06
2016-08-11T00:35:34.981Z,1037.08
2016-08-11T00:36:34.974Z,1037.07
2016-08-11T00:37:34.966Z,1037.07
2016-08-11T00:38:34.954Z,1037.09
2016-08-11T00:39:34.947Z,1037.11
2016-08-11T00:40:34.939Z,1037.1
2016-08-11T00:41:34.934Z,1037.13
2016-08-11T00:43:34.916Z,1037.14
2016-08-11T00:44:36.047Z,1037.13
2016-08-11T00:45:35.803Z,1037.12
2016-08-11T00:46:34.895Z,1037.09
2016-08-11T00:47:35.431Z,1037.1
2016-08-11T00:48:35.340Z,1037.08
2016-08-11T00:49:34.870Z,1037.06
2016-08-11T00:50:34.865Z,1037.07
2016-08-11T00:51:34.858Z,1037.1
2016-08-11T00:52:36.436Z,1037.12
2016-08-11T00:53:34.842Z,1037.09
2016-08-11T00:54:34.838Z,1037.12
2016-08-11T00:55:34.825Z,1037.1
2016-08-11T00:56:35.183Z,1037.07
2016-08-11T00:57:34.809Z,1037.11
2016-08-11T00:58:34.803Z,1037.14
2016-08-11T00:59:34.794Z,1037.09
2016-08-11T01:00:34.788Z,1037.1
2016-08-11T01:01:34.781Z,1037.09
2016-08-11T01:02:34.770Z,1037.1
2016-08-11T01:03:34.763Z,1037.11
2016-08-11T01:04:34.755Z,1037.13
2016-08-11T01:05:34.746Z,1037.08
2016-08-11T01:06:34.738Z,1037.11
2016-08-11T01:07:34.739Z,1037.06
2016-08-11T01:08:34.725Z,1037.09
2016-08-11T01:09:34.719Z,1037.1
2016-08-11T01:10:34.710Z,1037.07
2016-08-11T01:11:34.700Z,1037.13
2016-08-11T01:12:34.696Z,1037.09
2016-08-11T01:13:34.688Z,1037.08
2016-08-11T01:14:34.678Z,1037.12
2016-08-11T01:15:34.673Z,1037.09
2016-08-11T01:16:34.664Z,1037.11
2016-08-11T01:17:34.654Z,1037.08
2016-08-11T01:18:34.647Z,1037.1
2016-08-11T01:19:34.641Z,1037.1
2016-08-11T01:20:34.633Z,1037.09
2016-08-11T01:21:34.623Z,1037.1
2016-08-11T01:22:34.617Z,1037.11
2016-08-11T01:23:34.609Z,1037.09
2016-08-11T01:24:34.599Z,1037.17
2016-08-11T01:25:34.595Z,1037.16
2016-08-11T01:26:34.583Z,1037.18
2016-08-11T01:27:34.579Z,1037.16
2016-08-11T01:28:34.570Z,1037.18
2016-08-11T01:29:34.559Z,1037.19
2016-08-11T01:30:34.552Z,1037.25
2016-08-11T01:31:34.546Z,1037.21
2016-08-11T01:32:34.538Z,1037.24
2016-08-11T01:33:34.528Z,1037.2
2016-08-11T01:34:34.521Z,1037.25
2016-08-11T01:35:34.515Z,1037.24
2016-08-11T01:36:34.506Z,1037.25
2016-08-11T01:37:34.497Z,1037.24
2016-08-11T01:38:34.489Z,1037.26
2016-08-11T01:39:35.733Z,1037.31
2016-08-11T01:40:34.476Z,1037.32
2016-08-11T01:41:34.465Z,1037.32
2016-08-11T01:42:34.461Z,1037.29
2016-08-11T01:43:34.453Z,1037.32
2016-08-11T01:44:34.594Z,1037.34
2016-08-11T01:45:34.436Z,1037.32
2016-08-11T01:46:34.426Z,1037.33
2016-08-11T01:47:34.418Z,1037.32
2016-08-11T01:49:34.402Z,1037.35
2016-08-11T01:50:34.396Z,1037.38
2016-08-11T01:51:34.388Z,1037.38
2016-08-11T01:52:34.379Z,1037.43
2016-08-11T01:53:34.772Z,1037.42
2016-08-11T01:54:34.363Z,1037.45
2016-08-11T01:55:34.355Z,1037.48
2016-08-11T01:56:34.347Z,1037.5
2016-08-11T01:57:34.341Z,1037.48
2016-08-11T01:59:34.322Z,1037.5
2016-08-11T02:00:35.143Z,1037.54
2016-08-11T02:01:34.307Z,1037.56
2016-08-11T02:02:35.816Z,1037.58
2016-08-11T02:03:34.290Z,1037.63
2016-08-11T02:04:34.285Z,1037.6
2016-08-11T02:05:34.275Z,1037.64
2016-08-11T02:06:34.268Z,1037.61
2016-08-11T02:07:34.261Z,1037.63
2016-08-11T02:08:34.251Z,1037.65
2016-08-11T02:09:34.247Z,1037.64
2016-08-11T02:10:35.353Z,1037.66
2016-08-11T02:11:34.318Z,1037.66
2016-08-11T02:12:35.190Z,1037.62
2016-08-11T02:14:34.203Z,1037.68
2016-08-11T02:15:34.195Z,1037.64
2016-08-11T02:16:34.188Z,1037.63
2016-08-11T02:17:34.179Z,1037.63
2016-08-11T02:18:34.173Z,1037.67
2016-08-11T02:19:34.166Z,1037.66
2016-08-11T02:20:34.156Z,1037.68
2016-08-11T02:21:34.150Z,1037.69
2016-08-11T02:22:34.138Z,1037.64
2016-08-11T02:23:34.134Z,1037.69
2016-08-11T02:24:34.122Z,1037.7
2016-08-11T02:25:34.115Z,1037.72
2016-08-11T02:26:34.108Z,1037.71
2016-08-11T02:27:34.101Z,1037.71
2016-08-11T02:29:34.085Z,1037.75
2016-08-11T02:30:34.075Z,1037.79
2016-08-11T02:31:34.067Z,1037.74
2016-08-11T02:32:34.058Z,1037.77
2016-08-11T02:33:34.050Z,1037.79
2016-08-11T02:34:34.043Z,1037.78
2016-08-11T02:35:34.034Z,1037.8
2016-08-11T02:36:34.026Z,1037.77
2016-08-11T02:37:34.018Z,1037.76
2016-08-11T02:38:34.013Z,1037.82
2016-08-11T02:39:34.000Z,1037.78
2016-08-11T02:40:33.994Z,1037.79
2016-08-11T02:41:33.987Z,1037.81
2016-08-11T02:43:33.970Z,1037.81
2016-08-11T02:44:33.962Z,1037.81
2016-08-11T02:45:33.956Z,1037.85
2016-08-11T02:46:33.944Z,1037.82
2016-08-11T02:47:33.936Z,1037.85
2016-08-11T02:48:33.929Z,1037.91
2016-08-11T02:49:33.923Z,1037.89
2016-08-11T02:50:33.911Z,1037.92
2016-08-11T02:51:33.905Z,1037.91
2016-08-11T02:52:33.898Z,1037.9
2016-08-11T02:53:33.886Z,1037.91
2016-08-11T02:54:33.879Z,1037.92
2016-08-11T02:55:33.871Z,1037.93
2016-08-11T02:56:33.863Z,1037.91
2016-08-11T02:57:33.854Z,1037.9
2016-08-11T02:58:33.845Z,1037.92
2016-08-11T02:59:33.840Z,1037.92
2016-08-11T03:00:33.831Z,1037.94
2016-08-11T03:01:33.819Z,1037.96
2016-08-11T03:02:33.811Z,1037.96
2016-08-11T03:03:33.803Z,1037.96
2016-08-11T03:04:33.794Z,1037.95
2016-08-11T03:05:33.786Z,1037.94
2016-08-11T03:06:33.780Z,1037.92
2016-08-11T03:07:33.773Z,1037.95
2016-08-11T03:08:33.764Z,1037.96
2016-08-11T03:09:33.753Z,1037.96
2016-08-11T03:10:33.747Z,1037.94
2016-08-11T03:11:33.737Z,1037.96
2016-08-11T03:12:33.739Z,1037.98
2016-08-11T03:13:33.722Z,1037.95
2016-08-11T03:14:33.711Z,1037.97
2016-08-11T03:15:33.705Z,1037.97
2016-08-11T03:16:33.697Z,1038
2016-08-11T03:17:33.690Z,1038.01
2016-08-11T03:18:33.682Z,1038.01
2016-08-11T03:19:33.678Z,1038.01
2016-08-11T03:20:33.665Z,1038.02
2016-08-11T03:21:33.655Z,1038.03
2016-08-11T03:22:34.307Z,1038.05
2016-08-11T03:23:33.750Z,1038.06
2016-08-11T03:24:33.632Z,1038.03
2016-08-11T03:25:33.619Z,1038.05
2016-08-11T03:26:33.612Z,1038.03
2016-08-11T03:27:33.609Z,1038.02
2016-08-11T03:28:34.340Z,1038.04
2016-08-11T03:29:34.056Z,1038.03
2016-08-11T03:30:33.581Z,1038.05
2016-08-11T03:31:33.584Z,1038.07
2016-08-11T03:32:33.561Z,1038.1
2016-08-11T03:33:33.554Z,1038.12
2016-08-11T03:34:33.544Z,1038.11
2016-08-11T03:35:33.535Z,1038.09
2016-08-11T03:36:33.527Z,1038.06
2016-08-11T03:37:33.518Z,1038.05
2016-08-11T03:38:33.512Z,1038.06
2016-08-11T03:39:33.505Z,1038.09
2016-08-11T03:40:33.498Z,1038.07
2016-08-11T03:41:33.484Z,1038.08
2016-08-11T03:42:33.477Z,1038.09
2016-08-11T03:43:33.468Z,1038.06
2016-08-11T03:44:33.462Z,1038.1
2016-08-11T03:45:33.451Z,1038.08
2016-08-11T03:46:33.445Z,1038.15
2016-08-11T03:47:33.437Z,1038.11
2016-08-11T03:48:33.426Z,1038.06
2016-08-11T03:49:33.418Z,1038.06
2016-08-11T03:50:33.417Z,1038.03
2016-08-11T03:51:33.403Z,1038.04
2016-08-11T03:53:33.386Z,1038.05
2016-08-11T03:54:33.377Z,1038.03
2016-08-11T03:55:33.371Z,1038.01
2016-08-11T03:56:33.361Z,1038.02
2016-08-11T03:57:33.350Z,1038
2016-08-11T03:58:33.342Z,1037.99
2016-08-11T03:59:33.333Z,1037.99
2016-08-11T04:00:33.327Z,1037.98
2016-08-11T04:01:33.316Z,1038
2016-08-11T04:02:33.308Z,1037.95
2016-08-11T04:03:33.300Z,1037.96
2016-08-11T04:04:33.291Z,1037.92
2016-08-11T04:05:33.286Z,1037.93
2016-08-11T04:06:33.276Z,1037.89
2016-08-11T04:07:33.268Z,1037.88
2016-08-11T04:08:33.263Z,1037.87
2016-08-11T04:09:33.250Z,1037.87
2016-08-11T04:10:33.241Z,1037.84
2016-08-11T04:11:33.234Z,1037.83
2016-08-11T04:12:33.225Z,1037.73
2016-08-11T04:13:33.219Z,1037.66
2016-08-11T04:14:33.212Z,1037.65
2016-08-11T04:15:33.200Z,1037.57
2016-08-11T04:16:33.193Z,1037.51
2016-08-11T04:17:33.188Z,1037.53
2016-08-11T04:18:33.280Z,1037.45
2016-08-11T04:19:33.170Z,1037.46
2016-08-11T04:20:33.162Z,1037.5
2016-08-11T04:21:33.156Z,1037.37
2016-08-11T04:22:33.496Z,1037.2
2016-08-11T04:23:33.139Z,1036.95
2016-08-11T04:24:33.131Z,1036.7
2016-08-11T04:25:33.123Z,1036.52
2016-08-11T04:26:33.117Z,1036.34
2016-08-11T04:27:33.311Z,1036.12
2016-08-11T04:28:33.103Z,1035.95
2016-08-11T04:29:33.095Z,1035.8
2016-08-11T04:30:33.089Z,1035.67
2016-08-11T04:31:33.081Z,1035.51
2016-08-11T04:32:33.075Z,1035.35
2016-08-11T04:33:33.067Z,1035.23
2016-08-11T04:34:33.060Z,1035.05
2016-08-11T04:35:33.058Z,1034.91
2016-08-11T04:36:33.051Z,1034.77
2016-08-11T04:37:33.045Z,1034.63
2016-08-11T04:38:33.039Z,1034.5
2016-08-11T04:39:33.035Z,1034.4
2016-08-11T04:40:33.027Z,1034.24
2016-08-11T04:41:33.023Z,1034.14
2016-08-11T04:42:33.018Z,1034.02
2016-08-11T04:43:33.016Z,1033.91
2016-08-11T04:44:33.009Z,1033.79
2016-08-11T04:45:33.005Z,1033.68
2016-08-11T04:46:33.308Z,1033.57
2016-08-11T04:47:33.801Z,1033.42
2016-08-11T04:48:32.996Z,1033.29
2016-08-11T04:49:32.991Z,1033.2
2016-08-11T04:50:32.988Z,1033.05
2016-08-11T04:51:32.984Z,1032.95
2016-08-11T04:52:32.981Z,1032.79
2016-08-11T04:53:32.979Z,1032.66
2016-08-11T04:54:32.976Z,1032.56
2016-08-11T04:55:32.974Z,1032.42
2016-08-11T04:56:32.972Z,1032.35
2016-08-11T04:57:32.974Z,1032.24
2016-08-11T04:58:32.970Z,1032.14
2016-08-11T04:59:32.981Z,1032.09
2016-08-11T05:00:32.968Z,1031.97
2016-08-11T05:01:32.965Z,1031.89
2016-08-11T05:02:32.964Z,1031.78
2016-08-11T05:03:32.964Z,1031.67
2016-08-11T05:04:32.965Z,1031.59
2016-08-11T05:05:32.962Z,1031.53
2016-08-11T05:06:32.963Z,1031.46
2016-08-11T05:07:32.966Z,1031.42
2016-08-11T05:08:32.966Z,1031.33
2016-08-11T05:09:32.962Z,1031.24
2016-08-11T05:10:32.967Z,1031.18
2016-08-11T05:11:32.965Z,1031.11
2016-08-11T05:12:32.967Z,1031.02
2016-08-11T05:13:32.967Z,1030.89
2016-08-11T05:14:32.971Z,1030.87
2016-08-11T05:15:32.974Z,1030.72
2016-08-11T05:16:32.974Z,1030.64
2016-08-11T05:17:32.974Z,1030.59
2016-08-11T05:18:32.979Z,1030.52
2016-08-11T05:19:32.983Z,1030.4
2016-08-11T05:20:32.984Z,1030.35
2016-08-11T05:21:32.987Z,1030.28
2016-08-11T05:22:32.989Z,1030.23
2016-08-11T05:23:32.992Z,1030.21
2016-08-11T05:24:32.995Z,1030.2
2016-08-11T05:25:32.999Z,1030.13
2016-08-11T05:26:33.006Z,1030.13
2016-08-11T05:27:33.009Z,1030.08
2016-08-11T05:28:33.011Z,1030.02
2016-08-11T05:29:33.019Z,1029.94
2016-08-11T05:30:33.022Z,1029.85
2016-08-11T05:31:33.028Z,1029.76
2016-08-11T05:32:33.031Z,1029.73
2016-08-11T05:33:33.040Z,1029.68
2016-08-11T05:34:33.044Z,1029.59
2016-08-11T05:35:33.048Z,1029.57
2016-08-11T05:36:33.054Z,1029.53
2016-08-11T05:38:33.068Z,1029.42
2016-08-11T05:39:33.081Z,1029.33
2016-08-11T05:40:33.081Z,1029.27
2016-08-11T05:41:33.090Z,1029.22
2016-08-11T05:42:33.096Z,1029.12
2016-08-11T05:43:33.101Z,1029.03
2016-08-11T05:44:33.110Z,1028.98
2016-08-11T05:45:33.117Z,1028.84
2016-08-11T05:46:33.126Z,1028.93
2016-08-11T05:47:33.132Z,1028.81
2016-08-11T05:48:33.140Z,1029.25
2016-08-11T05:49:33.149Z,1029.63
2016-08-11T05:50:33.159Z,1029.41
2016-08-11T05:51:33.166Z,1029.23
2016-08-11T05:52:33.172Z,1029.26
2016-08-11T05:53:33.184Z,1029.2
2016-08-11T05:54:33.190Z,1029.15
2016-08-11T05:55:34.552Z,1029.08
2016-08-11T05:56:33.207Z,1028.96
2016-08-11T05:57:33.217Z,1028.88
2016-08-11T05:58:33.224Z,1028.85
2016-08-11T05:59:33.233Z,1028.84
2016-08-11T06:00:33.244Z,1028.83
2016-08-11T06:01:33.253Z,1028.74
2016-08-11T06:02:33.259Z,1028.69
2016-08-11T06:03:33.277Z,1028.54
2016-08-11T06:04:33.279Z,1028.51
2016-08-11T06:05:33.778Z,1028.48
2016-08-11T06:06:33.296Z,1028.41
2016-08-11T06:07:33.306Z,1028.39
2016-08-11T06:08:33.317Z,1028.31
2016-08-11T06:09:33.324Z,1028.29
2016-08-11T06:10:33.335Z,1028.27
2016-08-11T06:11:33.343Z,1028.24
2016-08-11T06:12:33.356Z,1028.26
2016-08-11T06:13:33.366Z,1028.25
2016-08-11T06:14:33.375Z,1028.27
2016-08-11T06:15:33.385Z,1028.21
2016-08-11T06:16:33.396Z,1028.19
2016-08-11T06:17:33.404Z,1028.15
2016-08-11T06:18:33.416Z,1028.28
2016-08-11T06:19:33.424Z,1028.34
2016-08-11T06:20:33.435Z,1028.36
2016-08-11T06:21:33.445Z,1028.39
2016-08-11T06:22:33.458Z,1028.42
2016-08-11T06:23:33.468Z,1028.41
2016-08-11T06:24:33.479Z,1028.39
2016-08-11T06:25:33.489Z,1028.41
2016-08-11T06:26:33.501Z,1028.48
2016-08-11T06:27:33.510Z,1028.44
2016-08-11T06:28:33.521Z,1028.44
2016-08-11T06:29:33.531Z,1028.44
2016-08-11T06:30:33.545Z,1028.59
2016-08-11T06:32:33.570Z,1028.61
2016-08-11T06:33:33.577Z,1028.66
2016-08-11T06:34:33.589Z,1028.73
2016-08-11T06:35:33.600Z,1028.76
2016-08-11T06:36:33.617Z,1028.72
2016-08-11T06:37:33.623Z,1028.72
2016-08-11T06:38:33.634Z,1028.75
2016-08-11T06:39:33.647Z,1028.87
2016-08-11T06:40:33.672Z,1028.88
2016-08-11T06:41:33.678Z,1028.9
2016-08-11T06:42:33.688Z,1028.97
2016-08-11T06:43:33.698Z,1029.09
2016-08-11T06:44:33.710Z,1029.16
2016-08-11T06:45:33.729Z,1029.04
2016-08-11T06:46:33.735Z,1028.95
2016-08-11T06:47:33.748Z,1029.01
2016-08-11T06:48:33.758Z,1029.09
2016-08-11T06:49:33.770Z,1029.13
2016-08-11T06:50:33.786Z,1029.08
2016-08-11T06:51:33.797Z,1029.06
2016-08-11T06:52:33.809Z,1029.03
2016-08-11T06:53:33.822Z,1029.15
2016-08-11T06:54:33.837Z,1029.24
2016-08-11T06:55:33.851Z,1029.27
2016-08-11T06:56:33.864Z,1029.27
2016-08-11T06:57:33.876Z,1029.21
2016-08-11T06:58:33.889Z,1029.22
2016-08-11T06:59:33.906Z,1029.18
2016-08-11T07:00:33.919Z,1029.08
2016-08-11T07:01:33.931Z,1029.09
2016-08-11T07:02:33.947Z,1028.93
2016-08-11T07:03:33.959Z,1028.81
2016-08-11T07:04:33.974Z,1030.04
2016-08-11T07:05:33.989Z,1029.23
2016-08-11T07:06:34.004Z,1029.55
2016-08-11T07:07:34.017Z,1030.23
2016-08-11T07:08:34.030Z,1029.6
2016-08-11T07:09:34.047Z,1029.58
2016-08-11T07:10:34.059Z,1029.46
2016-08-11T07:11:34.075Z,1029.39
2016-08-11T07:12:34.088Z,1029.4
2016-08-11T07:13:34.102Z,1029.47
2016-08-11T07:14:35.488Z,1029.54
2016-08-11T07:15:34.133Z,1029.55
2016-08-11T07:16:34.146Z,1029.57
2016-08-11T07:17:34.633Z,1029.58
2016-08-11T07:18:34.174Z,1029.58
2016-08-11T07:19:34.190Z,1029.48
2016-08-11T07:20:34.207Z,1029.54
2016-08-11T07:21:34.220Z,1029.47
2016-08-11T07:22:34.232Z,1029.74
2016-08-11T07:23:34.278Z,1029.73
2016-08-11T07:24:34.270Z,1029.7
2016-08-11T07:25:34.279Z,1029.65
2016-08-11T07:26:34.718Z,1029.67
2016-08-11T07:27:34.308Z,1029.6
2016-08-11T07:28:34.323Z,1029.35
2016-08-11T07:29:34.339Z,1030.78
2016-08-11T07:30:34.354Z,1030.73
2016-08-11T07:31:34.368Z,1030.51
2016-08-11T07:32:34.383Z,1030.29
2016-08-11T07:33:34.399Z,1029.96
2016-08-11T07:34:34.416Z,1031.11
2016-08-11T07:35:34.429Z,1030.78
2016-08-11T07:36:34.445Z,1030.5
2016-08-11T07:37:34.456Z,1030.28
2016-08-11T07:38:34.586Z,1030.12
2016-08-11T07:39:34.494Z,1030
2016-08-11T07:40:34.503Z,1029.92
2016-08-11T07:41:34.515Z,1029.95
2016-08-11T07:42:34.530Z,1029.87
2016-08-11T07:43:34.544Z,1029.85
2016-08-11T07:44:34.559Z,1029.85
2016-08-11T07:45:34.574Z,1029.75
2016-08-11T07:46:34.587Z,1029.81
2016-08-11T07:47:34.601Z,1029.82
2016-08-11T07:48:34.618Z,1029.93
2016-08-11T07:49:34.630Z,1030.01
2016-08-11T07:50:34.648Z,1030.1
2016-08-11T07:51:34.661Z,1030.16
2016-08-11T07:52:34.678Z,1030.22
2016-08-11T07:53:34.690Z,1030.24
2016-08-11T07:54:34.706Z,1030.22
2016-08-11T07:55:34.723Z,1030.11
2016-08-11T07:56:34.736Z,1029.98
2016-08-11T07:57:34.751Z,1030.01
2016-08-11T07:58:34.766Z,1029.83
2016-08-11T07:59:34.784Z,1029.8
2016-08-11T08:00:34.799Z,1029.74
2016-08-11T08:01:35.065Z,1029.62
2016-08-11T08:02:34.829Z,1029.5
2016-08-11T08:03:34.845Z,1029.31
2016-08-11T08:04:34.862Z,1029.13
2016-08-11T08:05:34.924Z,1028.96
2016-08-11T08:06:34.890Z,1028.71
2016-08-11T08:07:34.908Z,1028.61
2016-08-11T08:08:34.922Z,1028.53
2016-08-11T08:09:34.941Z,1028.44
2016-08-11T08:10:34.957Z,1028.39
2016-08-11T08:11:34.972Z,1028.44
2016-08-11T08:12:34.987Z,1028.43
2016-08-11T08:13:35.007Z,1028.58
2016-08-11T08:14:35.024Z,1028.69
2016-08-11T08:15:35.040Z,1028.75
2016-08-11T08:16:35.057Z,1028.84
2016-08-11T08:17:35.074Z,1029.13
2016-08-11T08:18:35.089Z,1029.47
2016-08-11T08:19:35.106Z,1030.19
2016-08-11T08:20:35.123Z,1030.3
2016-08-11T08:21:35.139Z,1030.39
2016-08-11T08:22:35.156Z,1030.51
2016-08-11T08:23:35.173Z,1030.48
2016-08-11T08:24:35.191Z,1030.41
2016-08-11T08:25:35.208Z,1030.35
2016-08-11T08:26:35.222Z,1030.73
2016-08-11T08:27:35.238Z,1032.04
2016-08-11T08:28:35.257Z,1032.24
2016-08-11T08:29:35.269Z,1031.78
2016-08-11T08:30:35.285Z,1031.45
2016-08-11T08:31:35.299Z,1031.54
2016-08-11T08:32:35.312Z,1031.34
2016-08-11T08:33:35.329Z,1031.11
2016-08-11T08:34:35.342Z,1030.89
2016-08-11T08:35:35.355Z,1030.69
2016-08-11T08:36:35.376Z,1030.59
2016-08-11T08:37:35.388Z,1030.39
2016-08-11T08:38:35.398Z,1030.36
2016-08-11T08:39:35.413Z,1030.65
2016-08-11T08:40:35.428Z,1031.61
2016-08-11T08:41:35.441Z,1032.27
2016-08-11T08:42:35.456Z,1032.89
2016-08-11T08:43:35.471Z,1033.28
2016-08-11T08:44:35.482Z,1033.68
2016-08-11T08:45:35.498Z,1033.97
2016-08-11T08:46:35.508Z,1034.23
2016-08-11T08:47:35.521Z,1034.58
2016-08-11T08:48:35.537Z,1034.92
2016-08-11T08:49:35.547Z,1035.16
2016-08-11T08:50:35.560Z,1035.45
2016-08-11T08:51:35.568Z,1035.54
2016-08-11T08:52:35.578Z,1035.58
2016-08-11T08:53:35.589Z,1035.4
2016-08-11T08:54:35.602Z,1035.35
2016-08-11T08:55:35.611Z,1035.28
2016-08-11T08:56:35.621Z,1035.35
2016-08-11T08:57:35.633Z,1035.48
2016-08-11T08:58:35.640Z,1035.69
2016-08-11T08:59:35.648Z,1035.85
2016-08-11T09:00:35.658Z,1036.03
2016-08-11T09:01:35.668Z,1036.11
2016-08-11T09:02:35.678Z,1036.27
2016-08-11T09:03:35.687Z,1036.4
2016-08-11T09:04:35.694Z,1036.55
2016-08-11T09:05:35.704Z,1036.61
2016-08-11T09:06:35.711Z,1036.56
2016-08-11T09:07:35.716Z,1036.55
2016-08-11T09:08:35.727Z,1036.5
2016-08-11T09:09:35.734Z,1036.55
2016-08-11T09:11:35.747Z,1036.41
2016-08-11T09:12:35.751Z,1036.43
2016-08-11T09:13:35.759Z,1036.41
2016-08-11T09:14:35.765Z,1036.43
2016-08-11T09:15:36.171Z,1036.38
2016-08-11T09:16:35.780Z,1036.4
2016-08-11T09:17:35.785Z,1036.39
2016-08-11T09:18:35.789Z,1036.54
2016-08-11T09:20:35.801Z,1036.78
2016-08-11T09:21:35.806Z,1036.77
2016-08-11T09:22:35.811Z,1036.86
2016-08-11T09:23:35.819Z,1036.92
2016-08-11T09:24:35.821Z,1036.99
2016-08-11T09:25:35.826Z,1037.06
2016-08-11T09:26:36.132Z,1037.06
2016-08-11T09:27:35.839Z,1037.05
2016-08-11T09:28:35.841Z,1037.03
2016-08-11T09:30:35.850Z,1037
2016-08-11T09:31:35.861Z,1036.98
2016-08-11T09:32:37.394Z,1036.97
2016-08-11T09:33:35.940Z,1036.95
2016-08-11T09:34:36.442Z,1037.14
2016-08-11T09:35:35.870Z,1037.19
2016-08-11T09:36:35.876Z,1037.18
2016-08-11T09:37:35.894Z,1037.13
2016-08-11T09:38:35.884Z,1037.07
2016-08-11T09:39:35.887Z,1036.99
2016-08-11T09:40:35.890Z,1036.89
2016-08-11T09:41:36.255Z,1036.89
2016-08-11T09:42:35.899Z,1036.88
2016-08-11T09:43:36.178Z,1036.8
2016-08-11T09:45:35.909Z,1036.67
2016-08-11T09:46:35.913Z,1036.51
2016-08-11T09:47:36.231Z,1036.43
2016-08-11T09:48:35.918Z,1036.32
2016-08-11T09:49:35.924Z,1036.2
2016-08-11T09:50:35.925Z,1036.03
2016-08-11T09:51:35.929Z,1035.98
2016-08-11T09:52:35.937Z,1035.95
2016-08-11T09:53:35.941Z,1035.97
2016-08-11T09:54:35.945Z,1036.06
2016-08-11T09:55:35.946Z,1036.15
2016-08-11T09:56:35.948Z,1036.31
2016-08-11T09:57:35.954Z,1036.46
2016-08-11T09:58:35.972Z,1036.6
2016-08-11T10:00:35.965Z,1036.88
2016-08-11T10:01:35.968Z,1036.86
2016-08-11T10:02:35.986Z,1036.98
2016-08-11T10:03:35.975Z,1037.09
2016-08-11T10:04:35.979Z,1037.19
2016-08-11T10:05:35.982Z,1037.23
2016-08-11T10:06:35.986Z,1037.25
2016-08-11T10:07:35.986Z,1037.29
2016-08-11T10:08:35.990Z,1037.32
2016-08-11T10:09:35.995Z,1037.25
2016-08-11T10:10:35.996Z,1037.21
2016-08-11T10:11:35.998Z,1037.25
2016-08-11T10:12:36.007Z,1037.32
2016-08-11T10:13:36.011Z,1037.32
2016-08-11T10:15:36.013Z,1037.33
2016-08-11T10:16:36.010Z,1037.42
2016-08-11T10:17:36.014Z,1037.36
2016-08-11T10:18:36.016Z,1037.3
2016-08-11T10:19:36.017Z,1037.18
2016-08-11T10:20:36.022Z,1037.09
2016-08-11T10:21:36.026Z,1037.02
2016-08-11T10:22:36.027Z,1036.89
2016-08-11T10:23:36.028Z,1036.77
2016-08-11T10:24:36.028Z,1036.76
2016-08-11T10:25:36.033Z,1036.59
2016-08-11T10:26:36.034Z,1036.47
2016-08-11T10:27:36.035Z,1036.28
2016-08-11T10:28:36.041Z,1036.34
2016-08-11T10:30:36.046Z,1036.18
2016-08-11T10:31:36.647Z,1036.08
2016-08-11T10:32:36.049Z,1036.06
2016-08-11T10:33:36.052Z,1035.97
2016-08-11T10:34:36.054Z,1035.82
2016-08-11T10:35:36.059Z,1035.79
2016-08-11T10:36:36.061Z,1035.83
2016-08-11T10:37:36.067Z,1035.66
2016-08-11T10:38:36.066Z,1035.51
2016-08-11T10:39:36.073Z,1035.47
2016-08-11T10:40:36.631Z,1035.47
2016-08-11T10:41:36.076Z,1035.37
2016-08-11T10:42:36.081Z,1035.4
2016-08-11T10:43:36.095Z,1035.43
2016-08-11T10:45:36.091Z,1035.43
2016-08-11T10:46:36.094Z,1035.45
2016-08-11T10:47:36.100Z,1035.36
2016-08-11T10:48:36.101Z,1035.42
2016-08-11T10:49:36.105Z,1035.38
2016-08-11T10:50:37.664Z,1035.21
2016-08-11T10:51:36.980Z,1035.12
2016-08-11T10:52:36.114Z,1034.95
2016-08-11T10:53:36.118Z,1034.87
2016-08-11T10:54:36.124Z,1034.84
2016-08-11T10:55:36.558Z,1035.02
2016-08-11T10:56:36.128Z,1035.1
2016-08-11T10:57:36.136Z,1035.29
2016-08-11T10:58:36.140Z,1035.39
2016-08-11T10:59:36.562Z,1035.44
2016-08-11T11:00:36.344Z,1035.66
2016-08-11T11:01:36.150Z,1035.81
2016-08-11T11:02:36.160Z,1035.95
2016-08-11T11:03:36.154Z,1036.07
2016-08-11T11:04:36.159Z,1036.16
2016-08-11T11:05:36.174Z,1036.38
2016-08-11T11:06:36.166Z,1036.49
2016-08-11T11:07:36.167Z,1036.59
2016-08-11T11:08:36.171Z,1036.62
2016-08-11T11:09:36.177Z,1036.66
2016-08-11T11:10:36.176Z,1036.8
2016-08-11T11:11:36.179Z,1036.75
2016-08-11T11:12:36.184Z,1036.77
2016-08-11T11:13:36.185Z,1036.81
2016-08-11T11:14:36.186Z,1036.78
2016-08-11T11:15:36.191Z,1036.76
2016-08-11T11:16:36.190Z,1036.74
2016-08-11T11:17:36.193Z,1036.64
2016-08-11T11:18:36.194Z,1036.57
2016-08-11T11:19:36.196Z,1036.49
2016-08-11T11:20:36.200Z,1036.39
2016-08-11T11:21:36.201Z,1036.35
2016-08-11T11:22:36.201Z,1036.36
2016-08-11T11:23:36.205Z,1036.32
2016-08-11T11:24:36.205Z,1036.33
2016-08-11T11:25:36.206Z,1036.29
2016-08-11T11:26:36.208Z,1036.23
2016-08-11T11:27:36.213Z,1036.1
2016-08-11T11:28:36.213Z,1035.98
2016-08-11T11:29:36.213Z,1036.03
2016-08-11T11:30:36.218Z,1035.93
2016-08-11T11:31:36.215Z,1035.87
2016-08-11T11:32:36.217Z,1035.89
2016-08-11T11:33:36.222Z,1035.85
2016-08-11T11:34:36.221Z,1035.9
2016-08-11T11:35:36.222Z,1035.88
2016-08-11T11:36:36.224Z,1035.88
2016-08-11T11:37:36.229Z,1035.87
2016-08-11T11:38:36.229Z,1035.8
2016-08-11T11:39:36.230Z,1035.82
2016-08-11T11:40:36.230Z,1035.8
2016-08-11T11:41:36.236Z,1035.82
2016-08-11T11:42:36.237Z,1035.82
2016-08-11T11:43:36.237Z,1035.81
2016-08-11T11:44:36.238Z,1035.84
2016-08-11T11:45:36.240Z,1035.85
2016-08-11T11:46:36.242Z,1035.88
2016-08-11T11:47:36.243Z,1035.91
2016-08-11T11:48:36.247Z,1035.93
2016-08-11T11:49:36.247Z,1035.99
2016-08-11T11:50:37.102Z,1036.06
2016-08-11T11:51:36.253Z,1036.08
2016-08-11T11:52:36.254Z,1036.13
2016-08-11T11:53:36.255Z,1036.22
2016-08-11T11:54:36.254Z,1036.15
2016-08-11T11:55:36.258Z,1036.15
2016-08-11T11:56:36.258Z,1036.13
2016-08-11T11:57:36.276Z,1036.05
2016-08-11T11:58:36.261Z,1036
2016-08-11T11:59:36.264Z,1035.93
2016-08-11T12:00:36.266Z,1035.88
2016-08-11T12:01:36.266Z,1035.81
2016-08-11T12:02:36.267Z,1035.71
2016-08-11T12:03:36.272Z,1035.59
2016-08-11T12:04:36.270Z,1035.55
2016-08-11T12:05:36.271Z,1035.45
2016-08-11T12:06:36.274Z,1035.34
2016-08-11T12:07:36.276Z,1035.3
2016-08-11T12:09:36.281Z,1035.12
2016-08-11T12:10:36.279Z,1035.03
2016-08-11T12:11:36.283Z,1035.06
2016-08-11T12:12:36.286Z,1035.13
2016-08-11T12:13:36.292Z,1035.27
2016-08-11T12:14:36.297Z,1035.34
2016-08-11T12:15:36.293Z,1035.42
2016-08-11T12:16:36.296Z,1035.52
2016-08-11T12:17:36.630Z,1035.61
2016-08-11T12:18:37.348Z,1035.67
2016-08-11T12:19:36.301Z,1035.74
2016-08-11T12:20:36.302Z,1035.83
2016-08-11T12:21:36.301Z,1035.82
2016-08-11T12:22:36.306Z,1035.78
2016-08-11T12:23:36.306Z,1035.76
2016-08-11T12:24:36.307Z,1035.71
2016-08-11T12:25:36.308Z,1035.64
2016-08-11T12:26:36.312Z,1035.61